Time;durP1;ratioP1;P1;durP2;ratioP2;P2;SDS_P1;SDS_P2;PMS_P1;PMS_P2;Temp;Humidity;BMP_temperature;BMP_pressure;BME280_temperature;BME280_humidity;BME280_pressure;Samples;Min_cycle;Max_cycle;Signal;HPM_P1;HPM_P2
2023/02/25 00:02:07;;;;;;;36.72;35.33;;;5.50;92.40;;;;;;5070435;28;20034;-77
2023/02/25 00:04:33;;;;;;;33.72;32.42;;;5.50;92.40;;;;;;5070115;28;20039;-66
2023/02/25 00:07:00;;;;;;;35.80;34.50;;;5.50;92.40;;;;;;5051870;28;20031;-71
2023/02/25 00:09:26;;;;;;;37.45;36.05;;;5.60;92.50;;;;;;5070336;28;20078;-71
2023/02/25 00:11:52;;;;;;;37.40;36.00;;;5.60;92.60;;;;;;5070065;28;20032;-71
2023/02/25 00:14:17;;;;;;;37.13;35.72;;;5.70;92.70;;;;;;5069938;28;20029;-71
2023/02/25 00:16:43;;;;;;;41.03;39.53;;;5.80;92.70;;;;;;5069899;28;20036;-71
2023/02/25 00:19:09;;;;;;;42.25;40.67;;;5.90;92.70;;;;;;5051918;28;20143;-71
2023/02/25 00:21:36;;;;;;;42.30;40.70;;;6.00;92.60;;;;;;5069784;28;20186;-71
2023/02/25 00:24:03;;;;;;;43.00;41.40;;;6.00;92.50;;;;;;5069825;28;20028;-71
2023/02/25 00:26:28;;;;;;;42.25;40.65;;;6.10;92.40;;;;;;5069793;28;20113;-71
2023/02/25 00:28:54;;;;;;;45.33;43.63;;;6.10;92.50;;;;;;5068594;28;20354;-71
2023/02/25 00:31:22;;;;;;;46.65;44.95;;;6.20;92.50;;;;;;5069520;28;20046;-71
2023/02/25 00:33:49;;;;;;;46.60;44.90;;;6.30;92.50;;;;;;5069502;28;20408;-71
2023/02/25 00:36:19;;;;;;;42.70;41.10;;;6.30;92.40;;;;;;5069607;28;20028;-71
2023/02/25 00:38:56;;;;;;;45.10;43.40;;;6.40;92.40;;;;;;5069557;28;20024;-71
2023/02/25 00:41:26;;;;;;;;;;;6.30;92.40;;;;;;5069921;28;20024;-71
2023/02/25 00:43:54;;;;;;;36.95;35.55;;;6.30;92.40;;;;;;5069262;28;19905;-71
2023/02/25 00:46:21;;;;;;;37.97;36.58;;;6.20;92.40;;;;;;5069175;28;20116;-71
2023/02/25 00:48:47;;;;;;;35.10;33.80;;;6.00;92.30;;;;;;5069247;28;20032;-71
2023/02/25 00:51:16;;;;;;;38.85;37.40;;;5.90;92.40;;;;;;5051347;28;20476;-71
2023/02/25 00:53:42;;;;;;;37.08;35.67;;;5.80;92.40;;;;;;5068992;28;20023;-71
2023/02/25 00:56:10;;;;;;;37.78;36.38;;;5.70;92.40;;;;;;5069495;28;20379;-71
2023/02/25 00:58:39;;;;;;;39.08;37.63;;;5.60;92.40;;;;;;5051098;28;20029;-71
2023/02/25 01:01:13;;;;;;;42.60;41.00;;;5.60;92.40;;;;;;5069092;28;20025;-71
2023/02/25 01:03:39;;;;;;;45.40;43.70;;;5.60;92.40;;;;;;5068934;28;20112;-71
2023/02/25 01:06:07;;;;;;;50.42;48.63;;;5.60;92.40;;;;;;5068821;28;20123;-71
2023/02/25 01:08:33;;;;;;;52.85;50.95;;;5.50;92.30;;;;;;5068878;28;20397;-71
2023/02/25 01:10:59;;;;;;;50.53;48.67;;;5.50;92.20;;;;;;5069102;28;20029;-71
2023/02/25 01:13:24;;;;;;;49.72;47.92;;;5.50;92.20;;;;;;5050812;28;20475;-71
2023/02/25 01:15:50;;;;;;;48.25;46.45;;;5.40;92.20;;;;;;5068780;28;20120;-72
2023/02/25 01:18:19;;;;;;;43.67;42.08;;;5.40;92.20;;;;;;5068822;28;20041;-71
2023/02/25 01:20:45;;;;;;;41.20;39.70;;;5.30;92.20;;;;;;5068646;28;20033;-71
2023/02/25 01:23:11;;;;;;;42.45;40.85;;;5.30;92.20;;;;;;5068548;28;20028;-72
2023/02/25 01:25:40;;;;;;;42.88;41.28;;;5.20;92.20;;;;;;5068647;28;20028;-72
2023/02/25 01:28:06;;;;;;;39.55;38.08;;;5.20;92.30;;;;;;5068641;28;20032;-72
2023/02/25 01:30:36;;;;;;;49.50;47.70;;;5.10;92.20;;;;;;5068604;28;20049;-72
2023/02/25 01:33:01;;;;;;;51.15;49.25;;;5.10;92.20;;;;;;5068493;28;20033;-72
2023/02/25 01:35:27;;;;;;;53.97;51.97;;;5.10;92.20;;;;;;5068384;28;20574;-72
2023/02/25 01:37:54;;;;;;;55.97;53.97;;;5.10;92.20;;;;;;5068371;28;20024;-72
2023/02/25 01:40:19;;;;;;;55.10;53.10;;;5.00;92.10;;;;;;5068600;28;20376;-71
2023/02/25 01:42:46;;;;;;;53.10;51.20;;;5.00;92.10;;;;;;5068348;28;20021;-72
2023/02/25 01:45:20;;;;;;;54.80;52.80;;;4.90;92.00;;;;;;5068118;28;20055;-72
2023/02/25 01:47:51;;;;;;;49.92;48.13;;;4.90;92.00;;;;;;5068211;28;20388;-72
2023/02/25 01:50:24;;;;;;;50.10;48.30;;;4.90;92.10;;;;;;5068057;28;20040;-72
2023/02/25 01:52:51;;;;;;;52.42;50.53;;;4.90;92.20;;;;;;5050165;28;20480;-72
2023/02/25 01:55:17;;;;;;;46.15;44.45;;;4.90;92.20;;;;;;5068076;28;20560;-72
2023/02/25 01:57:42;;;;;;;53.15;51.22;;;4.90;92.10;;;;;;5067719;28;20396;-71
2023/02/25 02:00:11;;;;;;;51.22;49.33;;;4.90;92.10;;;;;;5067990;28;20028;-71
2023/02/25 02:02:37;;;;;;;51.97;50.08;;;4.90;92.10;;;;;;5067939;28;20039;-71
2023/02/25 02:05:03;;;;;;;;;;;4.80;92.00;;;;;;5068421;28;20503;-71
2023/02/25 02:07:29;;;;;;;50.13;48.33;;;4.80;92.00;;;;;;5067997;28;19904;-71
2023/02/25 02:09:55;;;;;;;45.80;44.10;;;4.80;92.00;;;;;;5049823;28;20020;-71
2023/02/25 02:12:34;;;;;;;47.63;45.88;;;4.70;91.90;;;;;;5067761;28;20047;-71
2023/02/25 02:15:05;;;;;;;44.42;42.83;;;4.60;92.00;;;;;;5067543;28;20028;-71
2023/02/25 02:17:51;;;;;;;43.58;41.97;;;4.50;92.00;;;;;;5067479;28;20016;-71
2023/02/25 02:20:29;;;;;;;46.95;45.25;;;4.50;92.10;;;;;;5067418;28;20055;-71
2023/02/25 02:23:16;;;;;;;48.50;46.70;;;4.50;92.10;;;;;;5049678;28;20124;-71
2023/02/25 02:25:44;;;;;;;50.40;48.55;;;4.40;92.10;;;;;;5049562;28;20504;-71
2023/02/25 02:28:46;;;;;;;47.28;45.55;;;4.40;92.10;;;;;;5067565;28;20119;-71
2023/02/25 02:31:30;;;;;;;45.95;44.25;;;4.40;92.10;;;;;;5067511;28;20055;-71
2023/02/25 02:34:17;;;;;;;42.67;41.08;;;4.40;92.10;;;;;;5067416;28;20500;-71
2023/02/25 02:36:48;;;;;;;45.50;43.80;;;4.30;92.10;;;;;;5049841;28;20099;-71
2023/02/25 02:39:52;;;;;;;44.53;42.90;;;4.30;92.20;;;;;;5067397;28;20028;-71
2023/02/25 02:42:23;;;;;;;44.60;42.95;;;4.20;92.20;;;;;;5067411;28;20032;-71
2023/02/25 02:44:52;;;;;;;42.25;40.65;;;4.10;92.20;;;;;;5067096;28;20028;-72
2023/02/25 02:47:24;;;;;;;44.28;42.67;;;4.10;92.30;;;;;;5067400;28;20048;-71
2023/02/25 02:50:00;;;;;;;43.65;42.05;;;4.10;92.30;;;;;;5049254;28;20037;-71
2023/02/25 02:52:29;;;;;;;43.60;42.00;;;4.10;92.30;;;;;;5048952;28;20033;-71
2023/02/25 02:55:11;;;;;;;47.08;45.38;;;4.20;92.30;;;;;;5067139;28;20472;-71
2023/02/25 02:57:40;;;;;;;42.22;40.63;;;4.20;92.20;;;;;;5049393;28;20070;-71
2023/02/25 03:00:16;;;;;;;42.75;41.15;;;4.20;92.10;;;;;;5067186;28;20048;-71
2023/02/25 03:02:51;;;;;;;38.00;36.60;;;4.20;92.10;;;;;;5067094;28;20040;-71
2023/02/25 03:05:19;;;;;;;38.38;36.97;;;4.10;92.10;;;;;;5049008;28;20384;-78
2023/02/25 03:08:05;;;;;;;41.15;39.65;;;4.10;92.10;;;;;;5066886;28;20031;-71
2023/02/25 03:10:32;;;;;;;37.22;35.83;;;4.00;92.20;;;;;;5067035;28;20032;-71
2023/02/25 03:12:57;;;;;;;46.80;45.08;;;4.00;92.10;;;;;;5066909;28;20465;-71
2023/02/25 03:15:25;;;;;;;50.08;48.28;;;4.00;92.20;;;;;;5066976;28;20102;-71
2023/02/25 03:17:59;;;;;;;51.10;49.20;;;4.10;92.10;;;;;;5048817;28;20500;-71
2023/02/25 03:20:34;;;;;;;53.17;51.17;;;4.10;92.10;;;;;;5067093;28;20030;-71
2023/02/25 03:23:05;;;;;;;57.72;55.63;;;4.10;92.00;;;;;;5066976;28;20096;-71
2023/02/25 03:26:10;;;;;;;51.72;49.83;;;4.10;92.00;;;;;;5067071;28;20028;-71
2023/02/25 03:28:37;;;;;;;48.88;47.08;;;4.10;91.90;;;;;;5066861;28;20104;-71
2023/02/25 03:31:12;;;;;;;45.65;43.95;;;4.10;91.90;;;;;;5066896;28;20016;-71
2023/02/25 03:33:54;;;;;;;43.75;42.15;;;4.10;92.00;;;;;;5066902;28;20480;-71
2023/02/25 03:36:36;;;;;;;43.55;41.95;;;4.00;92.00;;;;;;5066875;28;20476;-71
2023/02/25 03:39:08;;;;;;;40.83;39.33;;;4.00;92.20;;;;;;5066861;28;20036;-71
2023/02/25 03:41:38;;;;;;;40.80;39.30;;;3.90;92.00;;;;;;5066805;28;20111;-71
2023/02/25 03:44:07;;;;;;;42.10;40.50;;;3.90;92.00;;;;;;5048860;28;20404;-71
2023/02/25 03:46:34;;;;;;;39.97;38.47;;;3.90;92.10;;;;;;5066663;28;20047;-71
2023/02/25 03:49:03;;;;;;;37.60;36.20;;;3.80;92.00;;;;;;5066702;28;20036;-71
2023/02/25 03:51:35;;;;;;;34.88;33.58;;;3.80;92.10;;;;;;5066744;28;20478;-72
2023/02/25 03:54:01;;;;;;;46.42;44.72;;;3.70;92.10;;;;;;5066734;28;20095;-71
2023/02/25 03:56:27;;;;;;;48.70;46.90;;;3.70;92.10;;;;;;5049069;28;20433;-71
2023/02/25 03:58:53;;;;;;;51.42;49.53;;;3.70;92.10;;;;;;5066734;28;20052;-71
2023/02/25 04:01:25;;;;;;;54.30;52.30;;;3.80;92.00;;;;;;5066660;28;20101;-71
2023/02/25 04:03:50;;;;;;;49.08;47.28;;;3.70;91.90;;;;;;5067019;28;20025;-71
2023/02/25 04:06:23;;;;;;;42.90;41.30;;;3.70;91.90;;;;;;5052184;28;20488;-71
2023/02/25 04:08:49;;;;;;;40.45;38.95;;;3.70;91.80;;;;;;5070048;28;20039;-71
2023/02/25 04:11:15;;;;;;;39.88;38.38;;;3.70;91.90;;;;;;5052150;28;20033;-71
2023/02/25 04:13:40;;;;;;;39.03;37.55;;;3.60;91.90;;;;;;5069974;28;20029;-71
2023/02/25 04:16:07;;;;;;;35.83;34.50;;;3.60;92.00;;;;;;5069880;28;20495;-71
2023/02/25 04:18:33;;;;;;;36.90;35.50;;;3.60;92.00;;;;;;5069937;28;20032;-71
2023/02/25 04:20:59;;;;;;;34.60;33.30;;;3.60;92.00;;;;;;5069899;28;20028;-71
2023/02/25 04:23:25;;;;;;;36.85;35.45;;;3.60;92.00;;;;;;5069830;28;20029;-71
2023/02/25 04:25:51;;;;;;;33.38;32.08;;;3.60;92.00;;;;;;5069842;28;20032;-71
2023/02/25 04:28:17;;;;;;;32.78;31.58;;;3.50;91.90;;;;;;5069738;28;20119;-71
2023/02/25 04:30:42;;;;;;;35.65;34.35;;;3.40;91.90;;;;;;5069812;28;20020;-71
2023/02/25 04:33:11;;;;;;;35.30;34.00;;;3.40;92.00;;;;;;5051899;28;20031;-71
2023/02/25 04:35:38;;;;;;;34.45;33.15;;;3.40;92.00;;;;;;5069694;28;20475;-71
2023/02/25 04:38:03;;;;;;;;;;;3.40;92.00;;;;;;5070280;28;20029;-71
2023/02/25 04:40:29;;;;;;;31.95;30.75;;;3.40;92.00;;;;;;5069550;28;20259;-71
2023/02/25 04:42:55;;;;;;;33.30;32.00;;;3.30;91.90;;;;;;5051490;28;20036;-71
2023/02/25 04:45:24;;;;;;;35.05;33.75;;;3.30;92.00;;;;;;5069344;28;20080;-71
2023/02/25 04:47:56;;;;;;;34.85;33.55;;;3.20;92.00;;;;;;5069399;28;20036;-71
2023/02/25 04:50:23;;;;;;;34.40;33.10;;;3.20;92.10;;;;;;5069295;28;20064;-71
2023/02/25 04:52:49;;;;;;;39.03;37.55;;;3.20;92.10;;;;;;5069305;28;20024;-71
2023/02/25 04:55:15;;;;;;;39.17;37.67;;;3.20;92.00;;;;;;5069333;28;20039;-71
2023/02/25 04:57:41;;;;;;;39.10;37.60;;;3.20;92.00;;;;;;5069212;28;20024;-71
2023/02/25 05:00:25;;;;;;;41.13;39.63;;;3.30;92.00;;;;;;5051199;28;20036;-71
2023/02/25 05:02:51;;;;;;;43.15;41.55;;;3.30;91.90;;;;;;5069210;28;20033;-71
2023/02/25 05:05:17;;;;;;;42.28;40.67;;;3.30;91.90;;;;;;5051197;28;20039;-70
2023/02/25 05:07:43;;;;;;;40.53;39.03;;;3.30;91.80;;;;;;5069114;28;20062;-71
2023/02/25 05:10:11;;;;;;;38.38;36.97;;;3.30;91.80;;;;;;5068978;28;20029;-71
2023/02/25 05:12:37;;;;;;;39.92;38.42;;;3.30;91.90;;;;;;5068940;28;20055;-71
2023/02/25 05:15:04;;;;;;;40.05;38.55;;;3.40;92.00;;;;;;5068516;28;20025;-71
2023/02/25 05:17:30;;;;;;;38.50;37.10;;;3.30;92.00;;;;;;5068766;28;20029;-71
2023/02/25 05:19:57;;;;;;;42.60;41.00;;;3.40;92.10;;;;;;5050910;28;20056;-71
2023/02/25 05:22:23;;;;;;;36.72;35.33;;;3.40;92.10;;;;;;5068814;28;20025;-71
2023/02/25 05:24:49;;;;;;;34.97;33.67;;;3.40;92.10;;;;;;5050855;28;20526;-71
2023/02/25 05:27:15;;;;;;;40.00;38.50;;;3.40;92.10;;;;;;5068654;28;20108;-71
2023/02/25 05:29:41;;;;;;;40.58;39.08;;;3.40;92.10;;;;;;5068648;28;20032;-71
2023/02/25 05:32:06;;;;;;;34.85;33.55;;;3.50;92.10;;;;;;5050648;28;20039;-71
2023/02/25 05:34:33;;;;;;;34.33;33.03;;;3.50;92.10;;;;;;5068468;28;20044;-71
2023/02/25 05:36:58;;;;;;;35.85;34.50;;;3.50;92.10;;;;;;5068518;28;20024;-71
2023/02/25 05:39:24;;;;;;;35.83;34.53;;;3.50;92.20;;;;;;5068465;28;20047;-71
2023/02/25 05:41:50;;;;;;;35.28;33.97;;;3.60;92.20;;;;;;5068368;28;20457;-71
2023/02/25 05:44:16;;;;;;;33.75;32.45;;;3.60;92.20;;;;;;5068263;28;20040;-71
2023/02/25 05:46:42;;;;;;;32.08;30.88;;;3.60;92.10;;;;;;5068184;28;20045;-71
2023/02/25 05:49:09;;;;;;;33.33;32.05;;;3.60;92.10;;;;;;5068118;28;20407;-71
2023/02/25 05:51:34;;;;;;;33.97;32.67;;;3.50;92.00;;;;;;5068157;28;20030;-71
2023/02/25 05:54:00;;;;;;;31.15;29.95;;;3.50;92.00;;;;;;5068016;28;20036;-71
2023/02/25 05:56:27;;;;;;;32.17;30.98;;;3.40;92.00;;;;;;5050089;28;20099;-70
2023/02/25 05:58:54;;;;;;;37.78;36.38;;;3.30;92.00;;;;;;5067980;28;20403;-71
2023/02/25 06:01:22;;;;;;;31.13;29.92;;;3.30;92.10;;;;;;5067882;28;20032;-71
2023/02/25 06:03:50;;;;;;;40.80;39.30;;;3.30;92.10;;;;;;5067821;28;20038;-71
2023/02/25 06:06:21;;;;;;;39.50;38.00;;;3.30;92.00;;;;;;5067960;28;20040;-71
2023/02/25 06:08:48;;;;;;;40.75;39.25;;;3.30;92.00;;;;;;5067760;28;20056;-71
2023/02/25 06:11:23;;;;;;;40.00;38.50;;;3.40;92.10;;;;;;5067857;28;20523;-71
2023/02/25 06:13:50;;;;;;;38.47;37.08;;;3.50;92.10;;;;;;5067705;28;20028;-71
2023/02/25 06:16:16;;;;;;;35.65;34.35;;;3.60;92.10;;;;;;5067785;28;20463;-71
2023/02/25 06:18:42;;;;;;;37.38;35.97;;;3.60;92.00;;;;;;5067749;28;20107;-71
2023/02/25 06:21:11;;;;;;;35.28;33.97;;;3.50;92.00;;;;;;5068178;28;20115;-71
2023/02/25 06:23:38;;;;;;;37.60;36.20;;;3.60;92.10;;;;;;5067663;28;20028;-71
2023/02/25 06:26:06;;;;;;;37.28;35.88;;;3.50;92.10;;;;;;5067159;28;20021;-71
2023/02/25 06:28:33;;;;;;;35.65;34.35;;;3.50;92.20;;;;;;5067242;28;20119;-71
2023/02/25 06:30:59;;;;;;;39.05;37.60;;;3.60;92.30;;;;;;5067528;28;20020;-71
2023/02/25 06:33:25;;;;;;;41.05;39.55;;;3.70;92.40;;;;;;5067317;28;20031;-71
2023/02/25 06:35:54;;;;;;;40.58;39.08;;;3.80;92.40;;;;;;5049592;28;20042;-71
2023/02/25 06:38:20;;;;;;;42.92;41.33;;;3.80;92.40;;;;;;5067523;28;20096;-71
2023/02/25 06:40:47;;;;;;;41.75;40.20;;;3.90;92.40;;;;;;5067594;28;20106;-71
2023/02/25 06:43:13;;;;;;;42.05;40.45;;;4.00;92.40;;;;;;5049440;28;20112;-71
2023/02/25 06:45:39;;;;;;;45.03;43.35;;;4.00;92.50;;;;;;5067405;28;20462;-71
2023/02/25 06:48:05;;;;;;;41.75;40.20;;;4.10;92.50;;;;;;5067352;28;20095;-71
2023/02/25 06:50:31;;;;;;;44.30;42.70;;;4.20;92.40;;;;;;5067393;28;20045;-71
2023/02/25 06:52:58;;;;;;;41.53;40.03;;;4.20;92.40;;;;;;5067270;28;20032;-71
2023/02/25 06:55:24;;;;;;;;;;;4.30;92.40;;;;;;5049694;28;20025;-70
2023/02/25 06:57:49;;;;;;;43.47;41.88;;;4.30;92.30;;;;;;5067312;28;19904;-70
2023/02/25 07:00:15;;;;;;;46.38;44.67;;;4.30;92.20;;;;;;5049300;28;20391;-71
2023/02/25 07:02:41;;;;;;;51.55;49.65;;;4.30;92.30;;;;;;5048900;28;20055;-71
2023/02/25 07:05:07;;;;;;;49.30;47.50;;;4.30;92.30;;;;;;5049191;28;20037;-70
2023/02/25 07:07:33;;;;;;;51.55;49.65;;;4.40;92.40;;;;;;5049194;28;20115;-71
2023/02/25 07:09:59;;;;;;;51.92;50.03;;;4.40;92.30;;;;;;5067497;28;20123;-71
2023/02/25 07:12:24;;;;;;;52.22;50.33;;;4.50;92.30;;;;;;5049251;28;20036;-71
2023/02/25 07:14:50;;;;;;;56.03;53.92;;;4.60;92.30;;;;;;5067113;28;20028;-70
2023/02/25 07:17:16;;;;;;;53.53;51.53;;;4.60;92.40;;;;;;5067385;28;20033;-71
2023/02/25 07:19:41;;;;;;;56.20;54.10;;;4.60;92.40;;;;;;5067116;28;20035;-71
2023/02/25 07:22:13;;;;;;;54.45;52.45;;;4.70;92.40;;;;;;5049303;28;20089;-70
2023/02/25 07:24:39;;;;;;;54.70;52.70;;;4.70;92.40;;;;;;5066913;28;20025;-71
2023/02/25 07:27:05;;;;;;;57.53;55.42;;;4.80;92.40;;;;;;5066801;28;20247;-71
2023/02/25 07:29:30;;;;;;;61.55;59.25;;;4.90;92.40;;;;;;5048777;28;20392;-70
2023/02/25 07:31:56;;;;;;;59.60;57.40;;;4.90;92.40;;;;;;5048850;28;20064;-70
2023/02/25 07:34:22;;;;;;;59.35;57.15;;;5.00;92.40;;;;;;5032488;28;20419;-71
2023/02/25 07:36:47;;;;;;;59.22;57.03;;;5.10;92.40;;;;;;5066937;28;20028;-71
2023/02/25 07:39:13;;;;;;;61.10;58.80;;;5.20;92.50;;;;;;5069276;28;20029;-71
2023/02/25 07:41:39;;;;;;;60.85;58.55;;;5.20;92.40;;;;;;5070724;28;20031;-71
2023/02/25 07:44:06;;;;;;;62.75;60.45;;;5.30;92.50;;;;;;5070529;28;20086;-71
2023/02/25 07:46:32;;;;;;;59.97;57.78;;;5.30;92.50;;;;;;5070187;28;20048;-71
2023/02/25 07:48:58;;;;;;;61.28;58.97;;;5.40;92.50;;;;;;5052372;28;20162;-71
2023/02/25 07:51:24;;;;;;;61.38;59.08;;;5.40;92.50;;;;;;5070405;28;20332;-71
2023/02/25 07:53:51;;;;;;;;;;;5.50;92.50;;;;;;5070627;28;20030;-71
2023/02/25 07:56:18;;;;;;;65.10;62.70;;;5.50;92.60;;;;;;5070091;28;19904;-71
2023/02/25 07:58:44;;;;;;;65.40;62.97;;;5.60;92.60;;;;;;5070184;28;20025;-71
2023/02/25 08:01:17;;;;;;;64.85;62.35;;;5.70;92.60;;;;;;5052143;28;20036;-72
2023/02/25 08:03:42;;;;;;;70.25;67.55;;;5.80;92.60;;;;;;5052485;28;20064;-71
2023/02/25 08:06:08;;;;;;;73.68;70.88;;;5.90;92.50;;;;;;5052317;28;20059;-71
2023/02/25 08:08:35;;;;;;;74.30;71.45;;;5.90;92.50;;;;;;5070057;28;20043;-71
2023/02/25 08:11:08;;;;;;;70.57;67.88;;;6.00;92.50;;;;;;5052186;28;20472;-71
2023/02/25 08:13:35;;;;;;;73.95;71.07;;;6.20;92.50;;;;;;5069796;28;20512;-71
2023/02/25 08:16:06;;;;;;;72.68;69.88;;;6.30;92.50;;;;;;5051722;28;20357;-71
2023/02/25 08:18:31;;;;;;;70.72;68.00;;;6.40;92.50;;;;;;5052039;28;20112;-71
2023/02/25 08:20:57;;;;;;;73.82;70.97;;;6.60;92.60;;;;;;5070031;28;20112;-71
2023/02/25 08:23:24;;;;;;;69.45;66.75;;;6.70;92.80;;;;;;5069771;28;20425;-71
2023/02/25 08:25:55;;;;;;;73.07;70.28;;;6.80;92.60;;;;;;5069689;28;20036;-71
2023/02/25 08:28:25;;;;;;;74.65;71.75;;;6.90;92.60;;;;;;5069619;28;20105;-71
2023/02/25 08:30:52;;;;;;;76.57;73.65;;;7.00;92.60;;;;;;5069206;28;20120;-71
2023/02/25 08:33:19;;;;;;;72.95;70.15;;;7.00;92.60;;;;;;5069293;28;20480;-71
2023/02/25 08:35:44;;;;;;;78.15;75.15;;;7.10;92.70;;;;;;5069317;28;20028;-70
2023/02/25 08:38:11;;;;;;;76.50;73.70;;;7.10;92.70;;;;;;5034735;28;20029;-70
2023/02/25 08:40:38;;;;;;;73.57;70.78;;;7.20;92.70;;;;;;5069392;28;20501;-71
2023/02/25 08:43:04;;;;;;;72.05;69.30;;;7.30;92.70;;;;;;5069117;28;20454;-71
2023/02/25 08:45:30;;;;;;;68.47;65.88;;;7.50;92.80;;;;;;5069112;28;20045;-71
2023/02/25 08:47:56;;;;;;;67.38;64.78;;;7.60;92.90;;;;;;5051134;28;20671;-71
2023/02/25 08:50:22;;;;;;;68.03;65.43;;;7.80;92.90;;;;;;5050581;28;20033;-71
2023/02/25 08:52:49;;;;;;;60.80;58.47;;;7.90;92.80;;;;;;5068984;28;20411;-71
2023/02/25 08:55:16;;;;;;;61.85;59.45;;;7.90;92.90;;;;;;5068790;28;20499;-71
2023/02/25 08:57:43;;;;;;;60.10;57.80;;;7.80;92.70;;;;;;5068259;28;20030;-70
2023/02/25 09:00:14;;;;;;;59.92;57.63;;;8.00;93.00;;;;;;5050297;28;20036;-71
2023/02/25 09:02:40;;;;;;;48.90;47.05;;;8.10;93.10;;;;;;5068877;28;20032;-71
2023/02/25 09:05:06;;;;;;;46.78;44.97;;;8.60;93.80;;;;;;5068603;28;20132;-71
2023/02/25 09:07:32;;;;;;;44.88;43.17;;;9.20;93.80;;;;;;5050531;28;20276;-71
2023/02/25 09:09:58;;;;;;;36.88;35.47;;;9.70;93.60;;;;;;5068424;28;20465;-71
2023/02/25 09:12:24;;;;;;;23.75;22.85;;;10.20;93.70;;;;;;5050942;28;20028;-71
2023/02/25 09:14:49;;;;;;;12.32;11.77;;;11.10;94.00;;;;;;5068353;28;20452;-71
2023/02/25 09:17:15;;;;;;;0.80;0.80;;;12.00;94.50;;;;;;5051333;28;20082;-75
2023/02/25 09:19:41;;;;;;;0.20;0.20;;;13.20;94.70;;;;;;5068193;28;20369;-76
2023/02/25 09:22:09;;;;;;;0.10;0.10;;;14.20;94.80;;;;;;5068157;28;20036;-76
2023/02/25 09:24:35;;;;;;;0.00;0.00;;;15.20;94.90;;;;;;5068743;28;20031;-77
2023/02/25 09:27:05;;;;;;;0.00;0.00;;;15.80;94.30;;;;;;5068409;28;20100;-78
2023/02/25 09:29:31;;;;;;;0.00;0.00;;;15.30;93.40;;;;;;5068082;28;20106;-78
2023/02/25 09:31:57;;;;;;;0.00;0.00;;;15.20;94.50;;;;;;5068166;28;20028;-77
2023/02/25 09:34:23;;;;;;;0.00;0.00;;;15.50;94.90;;;;;;5050088;28;20123;-76
2023/02/25 09:36:48;;;;;;;0.00;0.00;;;15.40;94.30;;;;;;5068266;28;20109;-76
2023/02/25 09:39:14;;;;;;;0.00;0.00;;;14.90;94.00;;;;;;5033235;28;20255;-75
2023/02/25 09:41:55;;;;;;;0.00;0.00;;;14.30;93.70;;;;;;5050195;28;20029;-76
2023/02/25 09:44:26;;;;;;;0.00;0.00;;;13.70;94.10;;;;;;5067778;28;20326;-76
2023/02/25 09:47:05;;;;;;;0.00;0.00;;;13.60;94.40;;;;;;5049805;28;20041;-78
2023/02/25 09:49:36;;;;;;;0.00;0.00;;;13.50;94.00;;;;;;5067422;28;20114;-78
2023/02/25 09:52:09;;;;;;;0.00;0.00;;;13.00;93.80;;;;;;5067715;28;20021;-78
2023/02/25 09:54:47;;;;;;;0.00;0.00;;;12.60;93.90;;;;;;5067763;28;20033;-78
2023/02/25 09:57:20;;;;;;;0.00;0.00;;;12.30;94.00;;;;;;5067634;28;20017;-78
2023/02/25 09:59:47;;;;;;;0.00;0.00;;;12.20;94.10;;;;;;5068197;28;20035;-78
2023/02/25 10:02:38;;;;;;;0.00;0.00;;;12.10;93.80;;;;;;5068545;28;20036;-78
2023/02/25 10:05:27;;;;;;;0.00;0.00;;;11.90;93.80;;;;;;5069541;28;20440;-78
2023/02/25 10:08:19;;;;;;;0.00;0.00;;;11.80;93.70;;;;;;5056984;28;20050;-78
2023/02/25 10:11:00;;;;;;;0.00;0.00;;;11.70;93.90;;;;;;5069920;28;20030;-79
2023/02/25 10:13:38;;;;;;;0.00;0.00;;;12.00;94.10;;;;;;5051451;28;20102;-78
2023/02/25 10:16:23;;;;;;;0.00;0.00;;;12.20;94.50;;;;;;5063248;28;20099;-80
2023/02/25 10:18:54;;;;;;;0.00;0.00;;;12.40;93.80;;;;;;5050607;28;20548;-78
2023/02/25 10:21:51;;;;;;;0.00;0.00;;;11.90;93.40;;;;;;5050702;28;20029;-79
2023/02/25 10:24:39;;;;;;;0.00;0.00;;;11.40;93.30;;;;;;5045159;28;20017;-77
2023/02/25 10:27:31;;;;;;;0.00;0.00;;;10.80;93.30;;;;;;5030229;28;20188;-76
2023/02/25 10:30:14;;;;;;;0.00;0.00;;;10.30;93.40;;;;;;5054253;28;20064;-77
2023/02/25 10:32:42;;;;;;;0.00;0.00;;;10.00;93.70;;;;;;5059347;28;20020;-76
2023/02/25 10:35:19;;;;;;;0.00;0.00;;;9.90;93.90;;;;;;5060458;28;20024;-76
2023/02/25 10:37:44;;;;;;;;;;;9.80;93.90;;;;;;5058574;28;20016;-76
2023/02/25 10:40:18;;;;;;;0.00;0.00;;;9.80;93.90;;;;;;5059367;28;19916;-77
2023/02/25 10:42:53;;;;;;;0.00;0.00;;;9.90;93.90;;;;;;5041028;28;20037;-76
2023/02/25 10:45:28;;;;;;;0.00;0.00;;;10.10;94.10;;;;;;5057923;28;20120;-76
2023/02/25 10:48:11;;;;;;;0.00;0.00;;;10.90;95.20;;;;;;5057696;28;20063;-77
2023/02/25 10:50:38;;;;;;;0.00;0.00;;;11.50;94.90;;;;;;5057972;28;20090;-78
2023/02/25 10:53:12;;;;;;;0.00;0.00;;;11.80;94.30;;;;;;5038654;28;20028;-77
2023/02/25 10:55:53;;;;;;;0.00;0.00;;;11.90;93.80;;;;;;5060656;28;20020;-74
2023/02/25 10:58:40;;;;;;;0.00;0.00;;;11.90;94.10;;;;;;5028151;28;20018;-77
2023/02/25 11:01:20;;;;;;;0.00;0.00;;;12.90;95.60;;;;;;5028814;28;20025;-78
2023/02/25 11:04:10;;;;;;;0.00;0.00;;;14.40;95.60;;;;;;5029012;28;20045;-81
2023/02/25 11:06:39;;;;;;;0.00;0.00;;;15.20;94.50;;;;;;5029106;28;20108;-79
2023/02/25 11:09:20;;;;;;;0.00;0.00;;;14.70;93.60;;;;;;5012591;28;20094;-77
2023/02/25 11:11:59;;;;;;;0.00;0.00;;;13.90;93.70;;;;;;5028901;28;20025;-67
2023/02/25 11:14:33;;;;;;;0.00;0.00;;;13.30;93.70;;;;;;5031383;28;20633;-79
2023/02/25 11:17:19;;;;;;;0.00;0.00;;;12.80;93.80;;;;;;5032559;28;20022;-79
2023/02/25 11:20:19;;;;;;;0.00;0.00;;;12.50;94.20;;;;;;5031889;28;20029;-79
2023/02/25 11:22:45;;;;;;;0.00;0.00;;;12.40;93.90;;;;;;5031675;28;20473;-80
2023/02/25 11:25:18;;;;;;;;;;;12.20;94.00;;;;;;5033051;28;20035;-78
2023/02/25 11:27:52;;;;;;;0.00;0.00;;;12.10;93.80;;;;;;5031432;28;19905;-79
2023/02/25 11:30:24;;;;;;;0.00;0.00;;;11.80;93.70;;;;;;5032270;28;20044;-79
2023/02/25 11:32:53;;;;;;;0.00;0.00;;;11.60;93.80;;;;;;5032227;28;20489;-80
2023/02/25 11:35:28;;;;;;;0.00;0.00;;;11.50;93.90;;;;;;5032789;28;20033;-80
2023/02/25 11:37:57;;;;;;;0.00;0.00;;;11.70;94.40;;;;;;5033249;28;20105;-81
2023/02/25 11:40:28;;;;;;;0.00;0.00;;;12.00;94.50;;;;;;5033375;28;20038;-79
2023/02/25 11:43:06;;;;;;;0.00;0.00;;;12.40;94.50;;;;;;5032137;28;20030;-79
2023/02/25 11:45:34;;;;;;;0.00;0.00;;;12.30;94.00;;;;;;5032422;28;20482;-78
2023/02/25 11:48:03;;;;;;;0.00;0.00;;;12.10;93.80;;;;;;5031168;28;20053;-78
2023/02/25 11:50:41;;;;;;;0.00;0.00;;;12.10;94.70;;;;;;5032711;28;20374;-81
2023/02/25 11:53:40;;;;;;;0.00;0.00;;;13.30;95.90;;;;;;5030700;28;20499;-83
2023/02/25 11:56:28;;;;;;;0.00;0.00;;;15.00;96.30;;;;;;5031641;28;20017;-76
2023/02/25 11:59:13;;;;;;;0.00;0.00;;;16.30;95.10;;;;;;5014320;28;20026;-82
2023/02/25 12:01:57;;;;;;;0.00;0.00;;;17.10;95.50;;;;;;5031820;28;20034;-80
2023/02/25 12:04:51;;;;;;;0.00;0.00;;;18.00;95.00;;;;;;5050006;28;20087;-81
2023/02/25 12:07:57;;;;;;;0.00;0.00;;;18.30;94.90;;;;;;5053019;28;20382;-79
2023/02/25 12:10:32;;;;;;;0.00;0.00;;;18.60;95.00;;;;;;5059472;28;20021;-79
2023/02/25 12:13:22;;;;;;;0.00;0.00;;;19.00;95.10;;;;;;5061213;28;20024;-80
2023/02/25 12:16:06;;;;;;;0.00;0.00;;;19.10;94.50;;;;;;5067254;28;20441;-79
2023/02/25 12:18:50;;;;;;;0.00;0.00;;;18.20;93.80;;;;;;5066033;28;20142;-80
2023/02/25 12:21:19;;;;;;;0.00;0.00;;;16.80;93.70;;;;;;5051934;28;20394;-76
2023/02/25 12:23:47;;;;;;;0.00;0.00;;;15.90;94.00;;;;;;5055713;28;20017;-79
2023/02/25 12:26:33;;;;;;;0.00;0.00;;;15.20;94.10;;;;;;5055687;28;20385;-81
2023/02/25 12:29:22;;;;;;;0.00;0.00;;;14.70;94.20;;;;;;5036696;28;20044;-80
2023/02/25 12:31:57;;;;;;;0.00;0.00;;;14.40;94.00;;;;;;5029857;28;20029;-80
2023/02/25 12:34:38;;;;;;;0.00;0.00;;;13.90;93.90;;;;;;5063540;28;20472;-80
2023/02/25 12:37:16;;;;;;;0.00;0.00;;;13.50;93.80;;;;;;5059690;28;20108;-80
2023/02/25 12:40:07;;;;;;;0.00;0.00;;;13.10;93.90;;;;;;5058624;28;20167;-80
2023/02/25 12:42:52;;;;;;;0.00;0.00;;;12.80;94.00;;;;;;5069041;28;20024;-80
2023/02/25 12:45:24;;;;;;;0.00;0.00;;;12.40;93.90;;;;;;5033460;28;20030;-78
2023/02/25 12:48:13;;;;;;;0.00;0.00;;;12.10;93.80;;;;;;5057134;28;20549;-79
2023/02/25 12:50:51;;;;;;;0.00;0.00;;;11.80;94.00;;;;;;5059197;28;20032;-81
2023/02/25 12:53:47;;;;;;;0.00;0.00;;;11.80;94.30;;;;;;5056064;28;20048;-78
2023/02/25 12:56:37;;;;;;;0.00;0.00;;;12.00;94.30;;;;;;5058332;28;20016;-80
2023/02/25 12:59:18;;;;;;;0.00;0.00;;;12.40;94.80;;;;;;5060879;28;20025;-76
2023/02/25 13:02:18;;;;;;;0.00;0.00;;;13.10;95.10;;;;;;5059142;28;20032;-80